createdAt,value
2022-11-09T00:00:45.913Z,17.08
2022-11-09T00:03:14.346Z,16.98
2022-11-09T00:05:42.430Z,16.97
2022-11-09T00:08:11.912Z,16.96
2022-11-09T00:10:39.807Z,16.93
2022-11-09T00:13:09.039Z,16.99
2022-11-09T00:15:37.287Z,16.90
2022-11-09T00:18:05.056Z,16.88
2022-11-09T00:20:32.892Z,16.96
2022-11-09T00:23:00.625Z,16.79
2022-11-09T00:25:28.380Z,16.87
2022-11-09T00:27:56.141Z,16.89
2022-11-09T00:30:28.867Z,17.00
2022-11-09T00:32:56.900Z,16.99
2022-11-09T00:35:24.638Z,16.90
2022-11-09T00:37:52.422Z,16.75
2022-11-09T00:40:20.201Z,16.87
2022-11-09T00:42:47.976Z,16.77
2022-11-09T00:45:17.080Z,16.79
2022-11-09T00:47:47.159Z,16.95
2022-11-09T00:50:15.396Z,16.84
2022-11-09T00:52:43.209Z,16.78
2022-11-09T00:55:10.943Z,16.81
2022-11-09T00:57:39.373Z,16.87
2022-11-09T01:00:08.307Z,16.96
2022-11-09T01:02:36.072Z,16.86
2022-11-09T01:05:05.990Z,16.75
2022-11-09T01:07:33.729Z,16.94
2022-11-09T01:10:01.444Z,16.83
2022-11-09T01:12:29.280Z,16.82
2022-11-09T01:14:57.084Z,16.79
2022-11-09T01:17:25.044Z,16.84
2022-11-09T01:19:55.757Z,16.76
2022-11-09T01:22:25.475Z,16.68
2022-11-09T01:24:55.751Z,16.66
2022-11-09T01:27:25.074Z,16.76
2022-11-09T01:29:52.868Z,16.73
2022-11-09T01:32:20.788Z,16.61
2022-11-09T01:34:49.050Z,16.50
2022-11-09T01:37:16.839Z,16.45
2022-11-09T01:39:46.002Z,16.46
2022-11-09T01:42:13.751Z,16.45
2022-11-09T01:44:43.671Z,16.39
2022-11-09T01:47:16.010Z,16.57
2022-11-09T01:49:46.843Z,16.49
2022-11-09T01:52:19.500Z,16.54
2022-11-09T01:54:50.267Z,16.47
2022-11-09T01:57:21.319Z,16.41
2022-11-09T01:59:53.002Z,16.43
2022-11-09T02:02:21.080Z,16.51
2022-11-09T02:04:51.711Z,16.25
2022-11-09T02:07:19.688Z,16.20
2022-11-09T02:09:52.718Z,16.14
2022-11-09T02:12:20.642Z,16.17
2022-11-09T02:14:49.857Z,16.37
2022-11-09T02:17:17.784Z,16.44
2022-11-09T02:19:46.286Z,16.31
2022-11-09T02:22:15.837Z,16.28
2022-11-09T02:24:43.797Z,16.22
2022-11-09T02:27:11.608Z,16.20
2022-11-09T02:29:41.704Z,16.21
2022-11-09T02:32:12.427Z,16.30
2022-11-09T02:34:40.282Z,16.19
2022-11-09T02:37:08.255Z,16.40
2022-11-09T02:39:37.614Z,16.40
2022-11-09T02:42:10.442Z,16.08
2022-11-09T02:44:43.027Z,16.29
2022-11-09T02:47:10.777Z,16.24
2022-11-09T02:49:38.544Z,16.28
2022-11-09T02:52:06.497Z,16.12
2022-11-09T02:54:34.324Z,16.24
2022-11-09T02:57:03.683Z,16.39
2022-11-09T02:59:31.419Z,16.17
2022-11-09T03:01:59.962Z,16.06
2022-11-09T03:04:30.572Z,16.04
2022-11-09T03:06:58.868Z,15.96
2022-11-09T03:09:26.900Z,16.02
2022-11-09T03:11:54.726Z,16.02
2022-11-09T03:14:23.883Z,15.88
2022-11-09T03:16:56.007Z,15.82
2022-11-09T03:19:23.817Z,15.86
2022-11-09T03:21:53.389Z,15.85
2022-11-09T03:24:24.382Z,15.89
2022-11-09T03:26:55.824Z,15.95
2022-11-09T03:29:24.934Z,15.91
2022-11-09T03:31:52.772Z,15.94
2022-11-09T03:34:20.594Z,15.77
2022-11-09T03:36:48.443Z,15.87
2022-11-09T03:39:16.233Z,16.05
2022-11-09T03:41:43.982Z,16.23
2022-11-09T03:44:11.740Z,16.23
2022-11-09T03:46:40.889Z,16.07
2022-11-09T03:49:08.728Z,15.93
2022-11-09T03:51:36.518Z,16.01
2022-11-09T03:54:04.513Z,15.96
2022-11-09T03:56:32.254Z,16.03
2022-11-09T03:59:00.017Z,16.50
2022-11-09T04:01:27.900Z,16.32
2022-11-09T04:03:57.063Z,16.19
2022-11-09T04:06:24.763Z,16.18
2022-11-09T04:08:52.885Z,16.42
2022-11-09T04:11:20.648Z,16.37
2022-11-09T04:13:48.426Z,16.49
2022-11-09T04:16:16.200Z,16.51
2022-11-09T04:18:43.978Z,16.24
2022-11-09T04:21:13.177Z,16.43
2022-11-09T04:23:40.940Z,16.28
2022-11-09T04:26:08.770Z,16.44
2022-11-09T04:28:36.513Z,16.55
2022-11-09T04:31:04.483Z,16.58
2022-11-09T04:33:32.196Z,16.40
2022-11-09T04:36:03.395Z,16.43
2022-11-09T04:38:32.812Z,16.35
2022-11-09T04:41:04.263Z,16.49
2022-11-09T04:43:32.025Z,16.50
2022-11-09T04:46:03.123Z,16.23
2022-11-09T04:48:31.126Z,16.15
2022-11-09T04:51:02.295Z,16.20
2022-11-09T04:53:31.917Z,16.42
2022-11-09T04:55:59.809Z,16.31
2022-11-09T04:58:28.031Z,16.25
2022-11-09T05:00:56.120Z,16.49
2022-11-09T05:03:24.070Z,16.48
2022-11-09T05:05:51.870Z,16.45
2022-11-09T05:08:19.655Z,16.28
2022-11-09T05:10:48.869Z,16.37
2022-11-09T05:13:16.932Z,16.14
2022-11-09T05:15:44.888Z,16.28
2022-11-09T05:18:12.666Z,16.17
2022-11-09T05:20:40.455Z,16.32
2022-11-09T05:23:40.444Z,16.24
2022-11-09T05:26:09.577Z,16.54
2022-11-09T05:28:37.363Z,16.29
2022-11-09T05:31:05.174Z,16.65
2022-11-09T05:33:33.131Z,16.33
2022-11-09T05:36:00.949Z,16.39
2022-11-09T05:38:28.716Z,16.26
2022-11-09T05:40:56.489Z,16.30
2022-11-09T05:43:25.676Z,16.23
2022-11-09T05:45:53.448Z,16.56
2022-11-09T05:48:21.230Z,16.11
2022-11-09T05:50:49.000Z,16.24
2022-11-09T05:53:22.704Z,16.29
2022-11-09T05:55:50.663Z,15.58
2022-11-09T05:58:18.415Z,16.03
2022-11-09T06:00:47.480Z,15.93
2022-11-09T06:03:15.224Z,15.90
2022-11-09T06:05:42.944Z,16.21
2022-11-09T06:08:12.851Z,16.38
2022-11-09T06:10:40.974Z,16.27
2022-11-09T06:13:08.977Z,16.09
2022-11-09T06:15:36.801Z,16.17
2022-11-09T06:18:05.996Z,16.22
2022-11-09T06:20:34.170Z,16.16
2022-11-09T06:23:04.157Z,16.22
2022-11-09T06:25:33.465Z,15.96
2022-11-09T06:28:01.750Z,15.73
2022-11-09T06:30:29.587Z,15.48
2022-11-09T06:33:00.975Z,15.64
2022-11-09T06:35:30.400Z,15.58
2022-11-09T06:37:58.615Z,15.53
2022-11-09T06:40:26.774Z,16.02
2022-11-09T06:42:57.619Z,15.33
2022-11-09T06:45:25.549Z,15.81
2022-11-09T06:47:56.486Z,16.34
2022-11-09T06:50:24.209Z,16.17
2022-11-09T06:52:57.053Z,16.02
2022-11-09T06:55:24.790Z,15.96
2022-11-09T06:57:52.560Z,15.68
2022-11-09T07:00:21.046Z,15.80
2022-11-09T07:02:48.758Z,15.69
2022-11-09T07:05:16.707Z,15.90
2022-11-09T07:07:44.652Z,15.95
2022-11-09T07:10:14.146Z,16.20
2022-11-09T07:12:42.077Z,16.31
2022-11-09T07:15:11.460Z,16.23
2022-11-09T07:17:40.189Z,15.99
2022-11-09T07:20:09.785Z,15.77
2022-11-09T07:22:39.376Z,15.78
2022-11-09T07:25:08.244Z,15.75
2022-11-09T07:27:37.624Z,15.77
2022-11-09T07:30:06.442Z,15.74
2022-11-09T07:33:02.559Z,15.77
2022-11-09T07:35:22.323Z,15.91
2022-11-09T07:37:50.063Z,15.79
2022-11-09T07:40:17.983Z,15.77
2022-11-09T07:42:47.406Z,15.71
2022-11-09T07:45:15.149Z,15.84
2022-11-09T07:47:42.895Z,15.80
2022-11-09T07:50:11.356Z,15.99
2022-11-09T07:52:39.078Z,15.96
2022-11-09T07:55:07.825Z,15.92
2022-11-09T07:57:35.807Z,15.90
2022-11-09T08:00:05.645Z,15.85
2022-11-09T08:02:39.536Z,16.13
2022-11-09T08:05:08.395Z,16.07
2022-11-09T08:07:36.178Z,16.24
2022-11-09T08:10:04.060Z,16.01
2022-11-09T08:12:36.744Z,16.14
2022-11-09T08:15:07.775Z,16.02
2022-11-09T08:17:35.584Z,15.99
2022-11-09T08:20:03.529Z,16.08
2022-11-09T08:22:31.352Z,16.59
2022-11-09T08:24:59.115Z,16.37
2022-11-09T08:27:26.958Z,16.50
2022-11-09T08:29:54.753Z,16.84
2022-11-09T08:32:23.879Z,16.48
2022-11-09T08:34:51.656Z,16.42
2022-11-09T08:37:19.453Z,16.53
2022-11-09T08:39:47.168Z,16.63
2022-11-09T08:42:14.915Z,16.71
2022-11-09T08:44:42.651Z,16.78
2022-11-09T08:47:10.407Z,16.59
2022-11-09T08:49:39.493Z,16.81
2022-11-09T08:52:07.340Z,16.78
2022-11-09T08:54:35.082Z,16.83
2022-11-09T08:57:02.947Z,16.87
2022-11-09T08:59:30.773Z,16.95
2022-11-09T09:01:59.426Z,17.00
2022-11-09T09:04:27.563Z,17.10
2022-11-09T09:06:56.811Z,17.18
2022-11-09T09:09:24.713Z,17.20
2022-11-09T09:11:52.450Z,17.31
2022-11-09T09:14:20.244Z,17.58
2022-11-09T09:16:48.578Z,17.70
2022-11-09T09:19:16.498Z,17.76
2022-11-09T09:21:44.713Z,18.07
2022-11-09T09:24:13.830Z,17.94
2022-11-09T09:26:41.586Z,17.94
2022-11-09T09:29:11.651Z,17.43
2022-11-09T09:31:39.425Z,17.98
2022-11-09T09:34:07.323Z,18.01
2022-11-09T09:36:35.482Z,18.44
2022-11-09T09:39:03.255Z,18.31
2022-11-09T09:41:39.620Z,18.33
2022-11-09T09:44:19.180Z,18.22
2022-11-09T09:46:50.009Z,18.25
2022-11-09T09:49:20.998Z,18.30
2022-11-09T09:51:52.508Z,18.09
2022-11-09T09:54:21.971Z,18.45
2022-11-09T09:56:52.479Z,18.94
2022-11-09T09:59:24.376Z,19.03
2022-11-09T10:01:52.462Z,19.08
2022-11-09T10:04:21.975Z,18.78
2022-11-09T10:07:01.070Z,18.91
2022-11-09T10:09:37.874Z,19.36
2022-11-09T10:12:17.398Z,19.19
2022-11-09T10:14:54.238Z,19.45
2022-11-09T10:17:28.426Z,18.91
2022-11-09T10:20:08.959Z,19.22
2022-11-09T10:22:45.736Z,19.03
2022-11-09T10:25:27.397Z,18.72
2022-11-09T10:28:04.961Z,18.85
2022-11-09T10:30:32.988Z,18.96
2022-11-09T10:33:04.822Z,19.38
2022-11-09T10:35:36.523Z,18.97
2022-11-09T10:38:04.257Z,18.63
2022-11-09T10:40:34.547Z,18.93
2022-11-09T10:43:24.369Z,19.22
2022-11-09T10:46:10.745Z,19.57
2022-11-09T10:48:57.206Z,18.69
2022-11-09T10:51:46.468Z,18.23
2022-11-09T10:54:35.172Z,18.22
2022-11-09T10:57:23.430Z,18.46
2022-11-09T11:00:17.540Z,17.94
2022-11-09T11:03:12.925Z,18.26
2022-11-09T11:06:00.944Z,18.13
2022-11-09T11:08:48.868Z,18.84
2022-11-09T11:11:37.378Z,19.01
2022-11-09T11:14:30.442Z,18.58
2022-11-09T11:17:25.910Z,18.23
2022-11-09T11:20:28.534Z,20.27
2022-11-09T11:23:18.279Z,21.46
2022-11-09T11:26:18.926Z,19.59
2022-11-09T11:29:10.224Z,23.13
2022-11-09T11:31:56.541Z,21.69
2022-11-09T11:34:59.803Z,21.60
2022-11-09T11:37:53.384Z,20.70
2022-11-09T11:40:45.130Z,20.54
2022-11-09T11:43:39.376Z,21.51
2022-11-09T11:46:30.201Z,21.80
2022-11-09T11:49:32.879Z,20.81
2022-11-09T11:52:25.871Z,20.11
2022-11-09T11:55:20.127Z,19.37
2022-11-09T11:58:19.287Z,21.11
2022-11-09T12:01:17.413Z,20.88
2022-11-09T12:04:15.242Z,20.75
2022-11-09T12:07:10.473Z,20.43
2022-11-09T12:10:11.289Z,20.45
2022-11-09T12:13:02.595Z,19.85
2022-11-09T12:15:54.826Z,19.75
2022-11-09T12:18:50.060Z,19.65
2022-11-09T12:21:41.037Z,20.39
2022-11-09T12:24:30.745Z,20.67
2022-11-09T12:27:37.386Z,19.82
2022-11-09T12:30:25.022Z,19.17
2022-11-09T12:33:16.742Z,19.46
2022-11-09T12:36:08.505Z,19.53
2022-11-09T12:39:00.148Z,20.04
2022-11-09T12:41:47.851Z,20.83
2022-11-09T12:44:39.171Z,21.32
2022-11-09T12:47:30.214Z,23.24
2022-11-09T12:50:19.223Z,22.58
2022-11-09T12:53:06.256Z,20.64
2022-11-09T12:55:55.216Z,19.17
2022-11-09T12:58:41.673Z,19.60
2022-11-09T13:01:47.186Z,18.35
2022-11-09T13:04:33.643Z,17.82
2022-11-09T13:07:30.812Z,17.90
2022-11-09T13:10:26.607Z,18.05
2022-11-09T13:13:25.214Z,17.30
2022-11-09T13:16:27.494Z,17.01
2022-11-09T13:19:52.426Z,17.27
2022-11-09T13:23:01.434Z,-144.92
2022-11-09T13:25:51.178Z,-144.92
2022-11-09T13:29:10.761Z,-144.92
2022-11-09T13:32:06.685Z,-144.92
2022-11-09T13:34:55.827Z,-144.92
2022-11-09T13:37:54.393Z,-144.92
2022-11-09T13:40:45.821Z,-144.92
2022-11-09T13:43:33.077Z,-144.92
2022-11-09T13:46:25.092Z,-144.92
2022-11-09T13:49:40.356Z,-144.92
2022-11-09T13:52:50.866Z,-144.92
2022-11-09T13:55:38.395Z,-144.92
2022-11-09T13:58:28.688Z,-144.92
2022-11-09T14:01:26.404Z,-144.92
2022-11-09T14:04:21.930Z,-144.92
2022-11-09T14:07:13.675Z,-144.92
2022-11-09T14:10:06.895Z,-144.92
2022-11-09T14:13:05.227Z,-144.92
2022-11-09T14:15:56.748Z,-144.92
2022-11-09T14:18:49.416Z,-144.92
2022-11-09T14:21:41.520Z,-144.92
2022-11-09T14:24:30.789Z,-144.92
2022-11-09T14:27:20.652Z,-144.92
2022-11-09T14:30:16.320Z,-144.92
2022-11-09T14:33:02.935Z,-144.92
2022-11-09T14:35:49.866Z,-144.92
2022-11-09T14:38:38.357Z,-144.92
2022-11-09T14:41:26.785Z,-144.92
2022-11-09T14:44:16.827Z,-144.92
2022-11-09T14:47:04.009Z,-144.92
2022-11-09T14:49:51.087Z,-144.92
2022-11-09T14:52:37.918Z,-144.92
2022-11-09T14:55:25.469Z,-144.92
2022-11-09T14:58:13.933Z,-144.92
2022-11-09T15:01:10.128Z,-144.92
2022-11-09T15:04:16.864Z,-144.92
2022-11-09T15:07:05.426Z,-144.92
2022-11-09T15:09:53.905Z,-144.92
2022-11-09T15:12:46.257Z,-144.92
2022-11-09T15:15:34.429Z,-144.92
2022-11-09T15:18:30.350Z,-144.92
2022-11-09T15:21:21.830Z,-144.92
2022-11-09T15:24:16.181Z,-144.92
2022-11-09T15:27:02.533Z,-144.92
2022-11-09T15:29:48.993Z,-144.92
2022-11-09T15:32:40.320Z,-144.92
2022-11-09T15:35:28.265Z,-144.92
2022-11-09T15:38:31.268Z,-144.92
2022-11-09T15:41:19.648Z,-144.92
2022-11-09T15:44:06.790Z,-144.92
2022-11-09T15:46:54.829Z,-144.92
2022-11-09T15:49:41.755Z,-144.92
2022-11-09T15:52:30.205Z,-144.92
2022-11-09T15:55:18.717Z,-144.92
2022-11-09T15:58:05.583Z,-144.92
2022-11-09T16:00:51.795Z,-144.92
2022-11-09T16:03:38.735Z,-144.92
2022-11-09T16:06:27.037Z,-144.92
2022-11-09T16:09:16.147Z,-144.92
2022-11-09T16:12:03.234Z,-144.92
2022-11-09T16:14:52.364Z,-144.92
2022-11-09T16:17:39.440Z,-144.92
2022-11-09T16:20:26.238Z,-144.92
2022-11-09T16:23:13.007Z,-144.92
2022-11-09T16:26:01.370Z,-144.92
2022-11-09T16:28:48.175Z,-144.92
2022-11-09T16:31:50.834Z,-144.92
2022-11-09T16:34:38.559Z,-144.92
2022-11-09T16:37:25.700Z,-144.92
2022-11-09T16:40:14.929Z,-144.92
2022-11-09T16:43:02.774Z,-144.92
2022-11-09T16:45:50.998Z,-144.92
2022-11-09T16:48:38.939Z,-144.92
2022-11-09T16:51:26.291Z,-144.92
2022-11-09T16:54:13.000Z,-144.92
2022-11-09T16:56:59.268Z,-144.92
2022-11-09T16:59:47.007Z,-144.92
2022-11-09T17:02:33.718Z,-144.92
2022-11-09T17:05:20.003Z,-144.92
2022-11-09T17:08:07.461Z,-144.92
2022-11-09T17:10:53.789Z,-144.92
2022-11-09T17:13:40.639Z,-144.92
2022-11-09T17:16:28.781Z,-144.92
2022-11-09T17:19:15.540Z,-144.92
2022-11-09T17:22:01.887Z,-144.92
2022-11-09T17:24:48.089Z,-144.92
2022-11-09T17:27:34.665Z,-144.92
2022-11-09T17:30:21.628Z,-144.92
2022-11-09T17:33:09.286Z,-144.92
2022-11-09T17:36:02.616Z,-144.92
2022-11-09T17:38:49.023Z,-144.92
2022-11-09T17:41:39.958Z,-144.92
2022-11-09T17:44:28.589Z,-144.92
2022-11-09T17:47:14.973Z,-144.92
2022-11-09T17:50:02.471Z,-144.92
2022-11-09T17:52:48.652Z,-144.92
2022-11-09T17:55:37.960Z,-144.92
2022-11-09T17:58:24.516Z,-144.92
2022-11-09T18:01:13.110Z,-144.92
2022-11-09T18:04:01.875Z,-144.92
2022-11-09T18:06:51.909Z,-144.92
2022-11-09T18:09:42.500Z,-144.92
2022-11-09T18:12:29.179Z,-144.92
2022-11-09T18:15:15.965Z,-144.92
2022-11-09T18:18:02.191Z,-144.92
2022-11-09T18:20:48.742Z,-144.92
2022-11-09T18:23:37.066Z,-144.92
2022-11-09T18:26:23.870Z,-144.92
2022-11-09T18:29:10.440Z,-144.92
2022-11-09T18:31:57.403Z,-144.92
2022-11-09T18:34:43.878Z,-144.92
2022-11-09T18:37:30.274Z,-144.92
2022-11-09T18:40:18.184Z,-144.92
2022-11-09T18:43:04.273Z,-144.92
2022-11-09T18:45:55.522Z,-144.92
2022-11-09T18:48:42.176Z,-144.92
2022-11-09T18:51:28.748Z,-144.92
2022-11-09T18:54:14.988Z,-144.92
2022-11-09T18:57:02.953Z,-144.92
2022-11-09T18:59:49.152Z,-144.92
2022-11-09T19:02:35.733Z,-144.92
2022-11-09T19:05:21.885Z,-144.92
2022-11-09T19:08:08.152Z,-144.92
2022-11-09T19:10:54.770Z,-144.92
2022-11-09T19:13:42.669Z,-144.92
2022-11-09T19:16:29.744Z,-144.92
2022-11-09T19:19:16.784Z,-144.92
2022-11-09T19:22:03.525Z,-144.92
2022-11-09T19:24:49.673Z,-144.92
2022-11-09T19:27:36.127Z,-144.92
2022-11-09T19:30:25.836Z,-144.92
2022-11-09T19:33:12.623Z,-144.92
2022-11-09T19:36:28.150Z,-144.92
2022-11-09T19:39:05.880Z,-144.92
2022-11-09T19:41:52.572Z,-144.92
2022-11-09T19:44:38.746Z,-144.92
2022-11-09T19:47:26.156Z,-144.92
2022-11-09T19:50:12.554Z,-144.92
2022-11-09T19:52:59.128Z,-144.92
2022-11-09T19:55:45.855Z,-144.92
2022-11-09T19:58:32.658Z,-144.92
2022-11-09T20:01:19.936Z,-144.92
2022-11-09T20:04:10.202Z,-144.92
2022-11-09T20:06:56.968Z,-144.92
2022-11-09T20:09:43.368Z,-144.92
2022-11-09T20:12:47.315Z,-144.92
2022-11-09T20:15:33.851Z,-144.92
2022-11-09T20:18:20.584Z,-144.92
2022-11-09T20:21:09.031Z,-144.92
2022-11-09T20:23:55.599Z,-144.92
2022-11-09T20:26:43.794Z,-144.92
2022-11-09T20:29:30.227Z,-144.92
2022-11-09T20:32:21.309Z,-144.92
2022-11-09T20:35:09.676Z,-144.92
2022-11-09T20:37:57.343Z,-144.92
2022-11-09T20:40:43.968Z,-144.92
2022-11-09T20:43:30.594Z,-144.92
2022-11-09T20:46:19.401Z,-144.92
2022-11-09T20:49:06.289Z,-144.92
2022-11-09T20:51:52.681Z,-144.92
2022-11-09T20:54:40.609Z,-144.92
2022-11-09T20:57:26.947Z,-144.92
2022-11-09T21:00:14.358Z,-144.92
2022-11-09T21:03:01.009Z,-144.92
2022-11-09T21:05:51.037Z,-144.92
2022-11-09T21:08:39.805Z,-144.92
2022-11-09T21:11:28.775Z,-144.92
2022-11-09T21:14:15.399Z,-144.92
2022-11-09T21:17:01.784Z,-144.92
2022-11-09T21:19:48.442Z,-144.92
2022-11-09T21:23:07.174Z,-144.92
2022-11-09T21:26:10.796Z,-144.92
2022-11-09T21:29:16.086Z,-144.92
2022-11-09T21:32:03.035Z,-144.92
2022-11-09T21:34:49.832Z,-144.92
2022-11-09T21:37:36.204Z,-144.92
2022-11-09T21:40:22.750Z,-144.92
2022-11-09T21:43:09.226Z,-144.92
2022-11-09T21:45:56.990Z,-144.92
2022-11-09T21:48:43.443Z,-144.92
2022-11-09T21:51:30.059Z,-144.92
2022-11-09T21:54:16.415Z,-144.92
2022-11-09T21:57:03.193Z,-144.92
2022-11-09T21:59:49.554Z,-144.92
2022-11-09T22:02:37.232Z,-144.92
2022-11-09T22:05:23.523Z,-144.92
2022-11-09T22:08:09.672Z,-144.92
2022-11-09T22:11:04.482Z,-144.92
2022-11-09T22:14:08.658Z,-144.92
2022-11-09T22:16:54.974Z,-144.92
2022-11-09T22:20:00.343Z,-144.92
2022-11-09T22:22:46.954Z,-144.92
2022-11-09T22:25:33.530Z,-144.92
2022-11-09T22:28:20.117Z,-144.92
2022-11-09T22:31:07.586Z,-144.92
2022-11-09T22:33:54.100Z,-144.92
2022-11-09T22:36:41.808Z,-144.92
2022-11-09T22:39:28.037Z,-144.92
2022-11-09T22:42:14.324Z,-144.92
2022-11-09T22:45:00.773Z,-144.92
2022-11-09T22:47:47.496Z,-144.92
2022-11-09T22:50:33.650Z,-144.92
2022-11-09T22:53:21.594Z,-144.92
2022-11-09T22:56:08.730Z,-144.92
2022-11-09T22:58:55.266Z,-144.92
2022-11-09T23:01:41.741Z,-144.92
2022-11-09T23:04:28.114Z,-144.92
2022-11-09T23:07:14.453Z,-144.92
2022-11-09T23:10:02.304Z,-144.92
2022-11-09T23:12:48.504Z,-144.92
2022-11-09T23:15:34.963Z,-144.92
2022-11-09T23:18:38.660Z,-144.92
2022-11-09T23:21:27.488Z,-144.92
2022-11-09T23:24:36.617Z,-144.92
2022-11-09T23:27:24.313Z,-144.92
2022-11-09T23:30:11.689Z,-144.92
2022-11-09T23:33:01.201Z,-144.92
2022-11-09T23:35:47.693Z,-144.92
2022-11-09T23:38:34.809Z,-144.92
2022-11-09T23:41:21.698Z,-144.92
2022-11-09T23:44:09.708Z,-144.92
2022-11-09T23:46:56.225Z,-144.92
2022-11-09T23:49:42.774Z,-144.92
2022-11-09T23:52:29.181Z,-144.92
2022-11-09T23:55:16.307Z,-144.92
2022-11-09T23:58:03.303Z,-144.92
